Terminal Aerodrome Forecast
Issued by NWS Huntsville, AL

Home | Current Version | Previous Version | Text Only | Print | Product List | Glossary On
Versions: 1 2 3 4 5 6 7 8 9 10 11 12 13 14 15 16 17
000
FTUS44 KHUN 260520
TAFMSL
TAF
KMSL 260520Z 2606/2706 VRB02KT P6SM FEW200
      TEMPO 2609/2612 5SM BR
     FM261500 02005KT P6SM SCT150
     FM262200 36005KT P6SM BKN070=

USA.gov is the U.S. government's official web portal to all federal, state and local government web resources and services.